sensor_id;sensor_type;location;lat;lon;timestamp;temperature;humidity
736;DHT22;352;48.626;9.238;2023-02-10T03:17:59;-2.20;99.90
736;DHT22;352;48.626;9.238;2023-02-10T03:25:19;-2.20;99.90
736;DHT22;352;48.626;9.238;2023-02-10T03:28:00;-2.20;99.90
736;DHT22;352;48.626;9.238;2023-02-10T03:30:55;-2.20;99.90
736;DHT22;352;48.626;9.238;2023-02-10T03:33:49;-2.30;99.90
736;DHT22;352;48.626;9.238;2023-02-10T03:36:37;-2.20;99.90
736;DHT22;352;48.626;9.238;2023-02-10T03:39:19;-2.30;99.90
736;DHT22;352;48.626;9.238;2023-02-10T03:41:51;-2.20;99.90
736;DHT22;352;48.626;9.238;2023-02-10T03:44:48;-2.20;99.90
736;DHT22;352;48.626;9.238;2023-02-10T03:47:35;-2.30;99.90
736;DHT22;352;48.626;9.238;2023-02-10T03:50:17;-2.30;99.90
736;DHT22;352;48.626;9.238;2023-02-10T03:52:53;-2.30;99.90
736;DHT22;352;48.626;9.238;2023-02-10T03:55:26;-2.30;99.90
736;DHT22;352;48.626;9.238;2023-02-10T03:57:58;-2.30;99.90
736;DHT22;352;48.626;9.238;2023-02-10T04:00:34;-2.30;99.90
736;DHT22;352;48.626;9.238;2023-02-10T04:03:03;-2.30;99.90
736;DHT22;352;48.626;9.238;2023-02-10T04:05:36;-2.30;99.90
736;DHT22;352;48.626;9.238;2023-02-10T04:08:03;-2.30;99.90
736;DHT22;352;48.626;9.238;2023-02-10T04:10:31;-2.30;99.90
736;DHT22;352;48.626;9.238;2023-02-10T04:12:59;-2.30;99.90
736;DHT22;352;48.626;9.238;2023-02-10T04:15:26;-2.30;99.90
736;DHT22;352;48.626;9.238;2023-02-10T04:17:53;-2.40;99.90
736;DHT22;352;48.626;9.238;2023-02-10T04:20:21;-2.40;99.90
736;DHT22;352;48.626;9.238;2023-02-10T04:22:50;-2.40;99.90
736;DHT22;352;48.626;9.238;2023-02-10T04:25:19;-2.40;99.90
736;DHT22;352;48.626;9.238;2023-02-10T04:27:45;-2.40;99.90
736;DHT22;352;48.626;9.238;2023-02-10T04:30:12;-2.40;99.90
736;DHT22;352;48.626;9.238;2023-02-10T04:32:39;-2.40;99.90
736;DHT22;352;48.626;9.238;2023-02-10T04:35:06;-2.40;99.90
736;DHT22;352;48.626;9.238;2023-02-10T04:37:33;-2.40;99.90
736;DHT22;352;48.626;9.238;2023-02-10T04:40:01;-2.50;99.90
736;DHT22;352;48.626;9.238;2023-02-10T04:42:28;-2.50;99.90
736;DHT22;352;48.626;9.238;2023-02-10T04:44:56;-2.50;99.90
736;DHT22;352;48.626;9.238;2023-02-10T04:47:24;-2.50;99.90
736;DHT22;352;48.626;9.238;2023-02-10T04:49:51;-2.50;99.90
736;DHT22;352;48.626;9.238;2023-02-10T04:52:17;-2.50;99.90
736;DHT22;352;48.626;9.238;2023-02-10T04:54:44;-2.50;99.90
736;DHT22;352;48.626;9.238;2023-02-10T04:57:12;-2.50;99.90
736;DHT22;352;48.626;9.238;2023-02-10T04:59:39;-2.50;99.90
736;DHT22;352;48.626;9.238;2023-02-10T05:02:06;-2.50;99.90
736;DHT22;352;48.626;9.238;2023-02-10T05:04:33;-2.50;99.90
736;DHT22;352;48.626;9.238;2023-02-10T05:06:59;-2.50;99.90
736;DHT22;352;48.626;9.238;2023-02-10T05:09:27;-2.60;99.90
736;DHT22;352;48.626;9.238;2023-02-10T05:11:54;-2.50;99.90
736;DHT22;352;48.626;9.238;2023-02-10T05:14:22;-2.60;99.90
736;DHT22;352;48.626;9.238;2023-02-10T05:16:49;-2.60;99.90
736;DHT22;352;48.626;9.238;2023-02-10T05:19:16;-2.60;99.90
736;DHT22;352;48.626;9.238;2023-02-10T05:21:42;-2.60;99.90
736;DHT22;352;48.626;9.238;2023-02-10T05:24:09;-2.60;99.90
736;DHT22;352;48.626;9.238;2023-02-10T05:26:36;-2.70;99.90
736;DHT22;352;48.626;9.238;2023-02-10T05:29:07;-2.70;99.90
736;DHT22;352;48.626;9.238;2023-02-10T05:31:35;-2.70;99.90
736;DHT22;352;48.626;9.238;2023-02-10T05:34:03;-2.70;99.90
736;DHT22;352;48.626;9.238;2023-02-10T05:36:29;-2.70;99.90
736;DHT22;352;48.626;9.238;2023-02-10T05:38:56;-2.70;99.90
736;DHT22;352;48.626;9.238;2023-02-10T05:41:49;-2.70;99.90
736;DHT22;352;48.626;9.238;2023-02-10T05:44:16;-2.70;99.90
736;DHT22;352;48.626;9.238;2023-02-10T05:46:44;-2.80;99.90
736;DHT22;352;48.626;9.238;2023-02-10T05:49:11;-2.80;99.90
736;DHT22;352;48.626;9.238;2023-02-10T05:51:38;-2.80;99.90
736;DHT22;352;48.626;9.238;2023-02-10T05:54:05;-2.80;99.90
736;DHT22;352;48.626;9.238;2023-02-10T05:56:31;-2.80;99.90
736;DHT22;352;48.626;9.238;2023-02-10T05:58:58;-2.80;99.90
736;DHT22;352;48.626;9.238;2023-02-10T06:01:25;-2.80;99.90
736;DHT22;352;48.626;9.238;2023-02-10T06:03:54;-2.80;99.90
736;DHT22;352;48.626;9.238;2023-02-10T06:06:21;-2.80;99.90
736;DHT22;352;48.626;9.238;2023-02-10T06:08:48;-2.80;99.90
736;DHT22;352;48.626;9.238;2023-02-10T06:11:20;-2.90;99.90
736;DHT22;352;48.626;9.238;2023-02-10T06:13:46;-2.80;99.90
736;DHT22;352;48.626;9.238;2023-02-10T06:16:13;-2.90;99.90
736;DHT22;352;48.626;9.238;2023-02-10T06:18:40;-2.90;99.90
736;DHT22;352;48.626;9.238;2023-02-10T06:21:09;-2.90;99.90
736;DHT22;352;48.626;9.238;2023-02-10T06:23:35;-2.90;99.90
736;DHT22;352;48.626;9.238;2023-02-10T06:26:02;-2.90;99.90
736;DHT22;352;48.626;9.238;2023-02-10T06:28:29;-2.90;99.90
736;DHT22;352;48.626;9.238;2023-02-10T06:30:57;-2.90;99.90
736;DHT22;352;48.626;9.238;2023-02-10T06:33:23;-3.00;99.90
736;DHT22;352;48.626;9.238;2023-02-10T06:35:50;-3.00;99.90
736;DHT22;352;48.626;9.238;2023-02-10T06:38:18;-3.00;99.90
736;DHT22;352;48.626;9.238;2023-02-10T06:40:45;-3.00;99.90
736;DHT22;352;48.626;9.238;2023-02-10T06:43:12;-3.00;99.90
736;DHT22;352;48.626;9.238;2023-02-10T06:45:38;-3.00;99.90
736;DHT22;352;48.626;9.238;2023-02-10T06:48:05;-3.00;99.90
736;DHT22;352;48.626;9.238;2023-02-10T06:50:32;-3.00;99.90
736;DHT22;352;48.626;9.238;2023-02-10T06:52:59;-3.00;99.90
736;DHT22;352;48.626;9.238;2023-02-10T06:55:27;-3.00;99.90
736;DHT22;352;48.626;9.238;2023-02-10T06:57:53;-3.00;99.90
736;DHT22;352;48.626;9.238;2023-02-10T07:00:24;-3.00;99.90
736;DHT22;352;48.626;9.238;2023-02-10T07:02:50;-2.90;99.90
736;DHT22;352;48.626;9.238;2023-02-10T07:05:17;-2.90;99.90
736;DHT22;352;48.626;9.238;2023-02-10T07:07:44;-2.80;99.90
736;DHT22;352;48.626;9.238;2023-02-10T07:10:11;-2.70;99.90
736;DHT22;352;48.626;9.238;2023-02-10T07:12:39;-2.70;99.90
736;DHT22;352;48.626;9.238;2023-02-10T07:15:07;-2.60;99.90
736;DHT22;352;48.626;9.238;2023-02-10T07:17:34;-2.50;99.90
736;DHT22;352;48.626;9.238;2023-02-10T07:20:02;-2.40;99.90
736;DHT22;352;48.626;9.238;2023-02-10T07:22:28;-2.40;99.90
736;DHT22;352;48.626;9.238;2023-02-10T07:24:55;-2.30;99.90
736;DHT22;352;48.626;9.238;2023-02-10T07:27:22;-2.20;99.90
736;DHT22;352;48.626;9.238;2023-02-10T07:29:50;-2.10;99.90
736;DHT22;352;48.626;9.238;2023-02-10T07:32:17;-1.90;99.90
736;DHT22;352;48.626;9.238;2023-02-10T07:34:44;-1.80;99.90
736;DHT22;352;48.626;9.238;2023-02-10T07:37:12;-1.70;99.90
736;DHT22;352;48.626;9.238;2023-02-10T07:39:39;-1.60;99.90
736;DHT22;352;48.626;9.238;2023-02-10T07:42:06;-1.50;99.90
736;DHT22;352;48.626;9.238;2023-02-10T07:44:33;-1.40;99.90
736;DHT22;352;48.626;9.238;2023-02-10T07:47:01;-1.30;99.90
736;DHT22;352;48.626;9.238;2023-02-10T07:49:28;-1.30;99.90
736;DHT22;352;48.626;9.238;2023-02-10T07:51:55;-1.20;99.90
736;DHT22;352;48.626;9.238;2023-02-10T07:54:22;-1.20;99.90
736;DHT22;352;48.626;9.238;2023-02-10T07:56:49;-1.20;99.90
736;DHT22;352;48.626;9.238;2023-02-10T07:59:16;-1.10;99.90
736;DHT22;352;48.626;9.238;2023-02-10T08:01:45;-1.00;99.90
736;DHT22;352;48.626;9.238;2023-02-10T08:04:13;-0.90;99.90
736;DHT22;352;48.626;9.238;2023-02-10T08:06:40;-0.80;99.90
736;DHT22;352;48.626;9.238;2023-02-10T08:09:10;-0.70;99.90
736;DHT22;352;48.626;9.238;2023-02-10T08:11:37;-0.60;99.90
736;DHT22;352;48.626;9.238;2023-02-10T08:14:04;-0.50;99.90
736;DHT22;352;48.626;9.238;2023-02-10T08:16:31;-0.40;99.90
736;DHT22;352;48.626;9.238;2023-02-10T08:18:57;-0.20;99.90
736;DHT22;352;48.626;9.238;2023-02-10T08:21:25;0.00;99.90
736;DHT22;352;48.626;9.238;2023-02-10T08:23:52;0.20;99.90
736;DHT22;352;48.626;9.238;2023-02-10T08:26:22;0.50;99.90
736;DHT22;352;48.626;9.238;2023-02-10T08:28:49;0.50;99.90
736;DHT22;352;48.626;9.238;2023-02-10T08:31:16;0.70;99.90
736;DHT22;352;48.626;9.238;2023-02-10T08:33:44;0.80;99.90
736;DHT22;352;48.626;9.238;2023-02-10T08:36:13;1.00;99.90
736;DHT22;352;48.626;9.238;2023-02-10T08:38:42;1.10;99.90
736;DHT22;352;48.626;9.238;2023-02-10T08:41:09;1.40;99.90
736;DHT22;352;48.626;9.238;2023-02-10T08:43:36;1.60;99.90
736;DHT22;352;48.626;9.238;2023-02-10T08:46:03;1.60;99.90
736;DHT22;352;48.626;9.238;2023-02-10T08:48:32;1.80;99.90
736;DHT22;352;48.626;9.238;2023-02-10T08:50:59;1.80;99.90
736;DHT22;352;48.626;9.238;2023-02-10T08:53:26;2.00;99.90
736;DHT22;352;48.626;9.238;2023-02-10T08:55:58;2.20;99.90
736;DHT22;352;48.626;9.238;2023-02-10T08:58:25;2.30;99.90
736;DHT22;352;48.626;9.238;2023-02-10T09:00:52;2.40;99.90
736;DHT22;352;48.626;9.238;2023-02-10T09:03:19;2.50;99.90
736;DHT22;352;48.626;9.238;2023-02-10T09:05:46;2.60;99.90
736;DHT22;352;48.626;9.238;2023-02-10T09:13:30;3.00;99.90
736;DHT22;352;48.626;9.238;2023-02-10T09:15:57;3.20;99.90
736;DHT22;352;48.626;9.238;2023-02-10T09:18:23;3.30;99.90
736;DHT22;352;48.626;9.238;2023-02-10T09:20:50;3.40;99.90
736;DHT22;352;48.626;9.238;2023-02-10T09:23:17;3.50;99.90
736;DHT22;352;48.626;9.238;2023-02-10T09:25:43;3.60;99.90
736;DHT22;352;48.626;9.238;2023-02-10T09:28:18;3.70;99.90
736;DHT22;352;48.626;9.238;2023-02-10T09:30:46;3.80;99.90
736;DHT22;352;48.626;9.238;2023-02-10T09:33:13;3.90;99.90
736;DHT22;352;48.626;9.238;2023-02-10T09:35:40;4.10;99.90
736;DHT22;352;48.626;9.238;2023-02-10T09:38:07;4.20;99.90
736;DHT22;352;48.626;9.238;2023-02-10T09:40:40;4.20;99.90
736;DHT22;352;48.626;9.238;2023-02-10T09:43:21;4.30;99.90
736;DHT22;352;48.626;9.238;2023-02-10T09:45:58;4.40;99.90
736;DHT22;352;48.626;9.238;2023-02-10T09:48:31;4.40;99.90
736;DHT22;352;48.626;9.238;2023-02-10T09:51:06;4.50;99.90
736;DHT22;352;48.626;9.238;2023-02-10T09:53:35;4.50;99.90
736;DHT22;352;48.626;9.238;2023-02-10T09:56:04;4.50;99.90
736;DHT22;352;48.626;9.238;2023-02-10T09:58:34;4.60;99.90
736;DHT22;352;48.626;9.238;2023-02-10T10:01:12;4.60;99.90
736;DHT22;352;48.626;9.238;2023-02-10T10:03:43;4.80;99.90
736;DHT22;352;48.626;9.238;2023-02-10T10:06:18;4.90;99.90
736;DHT22;352;48.626;9.238;2023-02-10T10:08:53;5.00;99.90
736;DHT22;352;48.626;9.238;2023-02-10T10:11:25;5.30;99.90
736;DHT22;352;48.626;9.238;2023-02-10T10:14:20;5.50;99.90
736;DHT22;352;48.626;9.238;2023-02-10T10:17:13;5.80;99.90
736;DHT22;352;48.626;9.238;2023-02-10T10:19:52;6.20;99.90
736;DHT22;352;48.626;9.238;2023-02-10T10:22:31;6.40;99.00
736;DHT22;352;48.626;9.238;2023-02-10T10:25:27;6.70;99.00
736;DHT22;352;48.626;9.238;2023-02-10T10:28:04;6.80;98.10
736;DHT22;352;48.626;9.238;2023-02-10T10:30:39;6.90;97.60
736;DHT22;352;48.626;9.238;2023-02-10T10:33:22;7.10;97.40
736;DHT22;352;48.626;9.238;2023-02-10T10:35:50;7.10;97.20
736;DHT22;352;48.626;9.238;2023-02-10T10:38:20;7.20;97.20
736;DHT22;352;48.626;9.238;2023-02-10T10:40:50;7.20;97.00
736;DHT22;352;48.626;9.238;2023-02-10T10:43:21;7.10;97.00
736;DHT22;352;48.626;9.238;2023-02-10T10:45:52;7.10;97.20
736;DHT22;352;48.626;9.238;2023-02-10T10:48:23;7.00;97.40
736;DHT22;352;48.626;9.238;2023-02-10T10:50:52;7.00;97.50
736;DHT22;352;48.626;9.238;2023-02-10T10:53:29;7.00;97.40
736;DHT22;352;48.626;9.238;2023-02-10T10:55:58;6.90;97.20
736;DHT22;352;48.626;9.238;2023-02-10T10:58:31;6.90;97.50
736;DHT22;352;48.626;9.238;2023-02-10T11:01:02;7.00;97.40
736;DHT22;352;48.626;9.238;2023-02-10T11:03:30;7.00;97.00
736;DHT22;352;48.626;9.238;2023-02-10T11:06:00;7.10;96.80
736;DHT22;352;48.626;9.238;2023-02-10T11:08:32;7.10;96.80
736;DHT22;352;48.626;9.238;2023-02-10T11:11:01;7.10;96.30
736;DHT22;352;48.626;9.238;2023-02-10T11:13:31;7.10;96.20
736;DHT22;352;48.626;9.238;2023-02-10T11:16:00;7.10;96.00
736;DHT22;352;48.626;9.238;2023-02-10T11:18:29;7.10;96.40
736;DHT22;352;48.626;9.238;2023-02-10T11:20:58;7.10;96.00
736;DHT22;352;48.626;9.238;2023-02-10T11:23:26;7.20;95.90
736;DHT22;352;48.626;9.238;2023-02-10T11:25:58;7.30;96.30
736;DHT22;352;48.626;9.238;2023-02-10T11:28:27;7.30;95.70
736;DHT22;352;48.626;9.238;2023-02-10T11:30:57;7.30;95.00
736;DHT22;352;48.626;9.238;2023-02-10T11:33:27;7.30;95.20
736;DHT22;352;48.626;9.238;2023-02-10T11:36:01;7.30;94.80
736;DHT22;352;48.626;9.238;2023-02-10T11:38:29;7.20;94.20
736;DHT22;352;48.626;9.238;2023-02-10T11:40:57;7.10;94.20
736;DHT22;352;48.626;9.238;2023-02-10T11:43:28;7.10;94.20
736;DHT22;352;48.626;9.238;2023-02-10T11:45:57;7.20;94.00
736;DHT22;352;48.626;9.238;2023-02-10T11:48:25;7.20;94.10
736;DHT22;352;48.626;9.238;2023-02-10T11:51:14;7.20;93.80
736;DHT22;352;48.626;9.238;2023-02-10T11:53:44;7.20;93.10
736;DHT22;352;48.626;9.238;2023-02-10T11:56:16;7.20;92.80
736;DHT22;352;48.626;9.238;2023-02-10T11:58:56;7.20;91.50
736;DHT22;352;48.626;9.238;2023-02-10T12:01:35;7.30;91.20
736;DHT22;352;48.626;9.238;2023-02-10T12:04:11;7.40;90.90
736;DHT22;352;48.626;9.238;2023-02-10T12:06:46;7.40;90.10
736;DHT22;352;48.626;9.238;2023-02-10T12:09:26;7.50;89.90
736;DHT22;352;48.626;9.238;2023-02-10T12:12:00;7.50;86.80
736;DHT22;352;48.626;9.238;2023-02-10T12:14:44;7.70;87.70
736;DHT22;352;48.626;9.238;2023-02-10T12:17:23;7.50;89.80
736;DHT22;352;48.626;9.238;2023-02-10T12:20:02;7.40;89.60
736;DHT22;352;48.626;9.238;2023-02-10T12:22:43;7.40;89.10
736;DHT22;352;48.626;9.238;2023-02-10T12:25:16;7.30;88.70
736;DHT22;352;48.626;9.238;2023-02-10T12:27:57;7.30;87.50
736;DHT22;352;48.626;9.238;2023-02-10T12:30:35;7.30;89.20
736;DHT22;352;48.626;9.238;2023-02-10T12:33:19;7.30;88.40
736;DHT22;352;48.626;9.238;2023-02-10T12:35:52;7.30;88.00
736;DHT22;352;48.626;9.238;2023-02-10T12:38:40;7.30;87.40
736;DHT22;352;48.626;9.238;2023-02-10T12:41:15;7.30;87.70
736;DHT22;352;48.626;9.238;2023-02-10T12:43:58;7.40;87.70
736;DHT22;352;48.626;9.238;2023-02-10T12:46:30;7.50;86.70
736;DHT22;352;48.626;9.238;2023-02-10T12:49:09;7.40;86.80
736;DHT22;352;48.626;9.238;2023-02-10T12:52:05;7.50;85.70
736;DHT22;352;48.626;9.238;2023-02-10T12:54:40;7.50;86.30
736;DHT22;352;48.626;9.238;2023-02-10T12:57:12;7.50;86.80
736;DHT22;352;48.626;9.238;2023-02-10T12:59:48;7.50;86.70
736;DHT22;352;48.626;9.238;2023-02-10T13:02:19;7.60;87.10
736;DHT22;352;48.626;9.238;2023-02-10T13:04:50;7.60;88.30
736;DHT22;352;48.626;9.238;2023-02-10T13:07:28;7.60;87.40
736;DHT22;352;48.626;9.238;2023-02-10T13:10:00;7.60;86.00
736;DHT22;352;48.626;9.238;2023-02-10T13:12:33;7.60;85.10
736;DHT22;352;48.626;9.238;2023-02-10T13:15:05;7.60;86.10
736;DHT22;352;48.626;9.238;2023-02-10T13:17:39;7.70;85.90
736;DHT22;352;48.626;9.238;2023-02-10T13:20:19;7.80;85.90
736;DHT22;352;48.626;9.238;2023-02-10T13:22:52;7.80;85.70
736;DHT22;352;48.626;9.238;2023-02-10T13:25:27;7.80;84.10
736;DHT22;352;48.626;9.238;2023-02-10T13:28:11;7.70;82.90
736;DHT22;352;48.626;9.238;2023-02-10T13:30:52;7.80;84.70
736;DHT22;352;48.626;9.238;2023-02-10T13:33:31;7.80;84.80
736;DHT22;352;48.626;9.238;2023-02-10T13:36:02;7.90;83.40
736;DHT22;352;48.626;9.238;2023-02-10T13:38:32;7.90;83.00
736;DHT22;352;48.626;9.238;2023-02-10T13:41:01;7.90;81.90
736;DHT22;352;48.626;9.238;2023-02-10T13:43:43;7.80;83.40
736;DHT22;352;48.626;9.238;2023-02-10T13:46:20;7.80;84.40
736;DHT22;352;48.626;9.238;2023-02-10T13:48:52;7.90;83.30
736;DHT22;352;48.626;9.238;2023-02-10T13:51:29;7.90;84.70
736;DHT22;352;48.626;9.238;2023-02-10T13:53:56;8.00;87.10
736;DHT22;352;48.626;9.238;2023-02-10T13:56:27;8.00;86.80
736;DHT22;352;48.626;9.238;2023-02-10T13:58:56;7.70;87.00
736;DHT22;352;48.626;9.238;2023-02-10T14:01:31;7.70;88.50
736;DHT22;352;48.626;9.238;2023-02-10T14:03:58;7.70;88.60
736;DHT22;352;48.626;9.238;2023-02-10T14:06:33;7.70;89.00
736;DHT22;352;48.626;9.238;2023-02-10T14:09:04;7.70;89.90
736;DHT22;352;48.626;9.238;2023-02-10T14:11:39;7.70;90.10
736;DHT22;352;48.626;9.238;2023-02-10T14:14:20;7.60;89.50
736;DHT22;352;48.626;9.238;2023-02-10T14:16:49;7.60;90.30
736;DHT22;352;48.626;9.238;2023-02-10T14:19:22;7.50;90.60
736;DHT22;352;48.626;9.238;2023-02-10T14:21:51;7.50;90.50
736;DHT22;352;48.626;9.238;2023-02-10T14:24:23;7.40;90.40
736;DHT22;352;48.626;9.238;2023-02-10T14:26:52;7.30;90.60
736;DHT22;352;48.626;9.238;2023-02-10T14:29:21;7.30;90.90
736;DHT22;352;48.626;9.238;2023-02-10T14:31:51;7.30;90.60
736;DHT22;352;48.626;9.238;2023-02-10T14:34:21;7.30;90.00
736;DHT22;352;48.626;9.238;2023-02-10T14:36:52;7.30;90.10
736;DHT22;352;48.626;9.238;2023-02-10T14:39:20;7.40;90.10
736;DHT22;352;48.626;9.238;2023-02-10T14:41:47;7.30;89.90
736;DHT22;352;48.626;9.238;2023-02-10T14:44:23;7.30;90.10
736;DHT22;352;48.626;9.238;2023-02-10T14:46:52;7.40;90.00
736;DHT22;352;48.626;9.238;2023-02-10T14:49:20;7.30;90.20
736;DHT22;352;48.626;9.238;2023-02-10T14:51:48;7.30;89.90
736;DHT22;352;48.626;9.238;2023-02-10T14:54:17;7.30;90.20
736;DHT22;352;48.626;9.238;2023-02-10T14:56:50;7.30;90.20
736;DHT22;352;48.626;9.238;2023-02-10T14:59:21;7.30;90.50
736;DHT22;352;48.626;9.238;2023-02-10T15:01:48;7.30;90.60
736;DHT22;352;48.626;9.238;2023-02-10T15:04:16;7.30;90.90
736;DHT22;352;48.626;9.238;2023-02-10T15:06:45;7.30;90.90
736;DHT22;352;48.626;9.238;2023-02-10T15:09:15;7.30;90.40
736;DHT22;352;48.626;9.238;2023-02-10T15:11:45;7.30;90.70
736;DHT22;352;48.626;9.238;2023-02-10T15:14:34;7.20;90.80
736;DHT22;352;48.626;9.238;2023-02-10T15:17:04;7.20;90.90
736;DHT22;352;48.626;9.238;2023-02-10T15:19:32;7.10;90.80
736;DHT22;352;48.626;9.238;2023-02-10T15:21:59;7.10;91.00
736;DHT22;352;48.626;9.238;2023-02-10T15:24:28;7.00;91.40
736;DHT22;352;48.626;9.238;2023-02-10T15:26:55;7.10;91.30
736;DHT22;352;48.626;9.238;2023-02-10T15:29:22;7.10;91.40
736;DHT22;352;48.626;9.238;2023-02-10T15:31:56;7.00;91.00
736;DHT22;352;48.626;9.238;2023-02-10T15:34:25;7.00;91.40
736;DHT22;352;48.626;9.238;2023-02-10T15:36:56;7.00;91.40
736;DHT22;352;48.626;9.238;2023-02-10T15:39:26;7.00;91.40
736;DHT22;352;48.626;9.238;2023-02-10T15:42:05;6.90;91.40
736;DHT22;352;48.626;9.238;2023-02-10T15:44:35;6.90;91.50
736;DHT22;352;48.626;9.238;2023-02-10T15:47:37;6.80;91.70
736;DHT22;352;48.626;9.238;2023-02-10T15:50:10;6.70;91.40
736;DHT22;352;48.626;9.238;2023-02-10T15:52:39;6.60;91.40
736;DHT22;352;48.626;9.238;2023-02-10T15:55:14;6.60;91.20
736;DHT22;352;48.626;9.238;2023-02-10T15:57:42;6.60;90.70
736;DHT22;352;48.626;9.238;2023-02-10T16:00:21;6.50;90.90
736;DHT22;352;48.626;9.238;2023-02-10T16:02:50;6.40;90.80
736;DHT22;352;48.626;9.238;2023-02-10T16:05:17;6.40;90.70
736;DHT22;352;48.626;9.238;2023-02-10T16:07:44;6.30;91.00
736;DHT22;352;48.626;9.238;2023-02-10T16:10:15;6.30;91.20
736;DHT22;352;48.626;9.238;2023-02-10T16:12:42;6.20;91.40
736;DHT22;352;48.626;9.238;2023-02-10T16:15:12;6.20;91.80
736;DHT22;352;48.626;9.238;2023-02-10T16:17:41;6.10;92.50
736;DHT22;352;48.626;9.238;2023-02-10T16:20:14;6.00;92.20
736;DHT22;352;48.626;9.238;2023-02-10T16:22:41;5.90;92.30
736;DHT22;352;48.626;9.238;2023-02-10T16:25:08;5.80;92.30
736;DHT22;352;48.626;9.238;2023-02-10T16:27:35;5.80;92.70
736;DHT22;352;48.626;9.238;2023-02-10T16:30:01;5.70;92.80
736;DHT22;352;48.626;9.238;2023-02-10T16:32:28;5.60;92.90
736;DHT22;352;48.626;9.238;2023-02-10T16:34:55;5.50;93.10
736;DHT22;352;48.626;9.238;2023-02-10T16:37:23;5.50;93.30
736;DHT22;352;48.626;9.238;2023-02-10T16:39:50;5.40;93.50
736;DHT22;352;48.626;9.238;2023-02-10T16:42:17;5.30;93.60
736;DHT22;352;48.626;9.238;2023-02-10T16:44:45;5.30;93.70
736;DHT22;352;48.626;9.238;2023-02-10T16:47:15;5.20;93.90
736;DHT22;352;48.626;9.238;2023-02-10T16:49:42;5.10;94.00
736;DHT22;352;48.626;9.238;2023-02-10T16:52:09;5.00;94.10
736;DHT22;352;48.626;9.238;2023-02-10T16:54:37;5.00;94.40
736;DHT22;352;48.626;9.238;2023-02-10T16:57:04;4.90;94.50
736;DHT22;352;48.626;9.238;2023-02-10T16:59:31;4.80;94.50
736;DHT22;352;48.626;9.238;2023-02-10T17:01:58;4.80;94.70
736;DHT22;352;48.626;9.238;2023-02-10T17:04:25;4.70;94.80
736;DHT22;352;48.626;9.238;2023-02-10T17:06:52;4.70;94.80
736;DHT22;352;48.626;9.238;2023-02-10T17:09:21;4.60;94.90
736;DHT22;352;48.626;9.238;2023-02-10T17:11:50;4.60;95.00
736;DHT22;352;48.626;9.238;2023-02-10T17:14:17;4.50;95.00
736;DHT22;352;48.626;9.238;2023-02-10T17:16:45;4.50;95.10
736;DHT22;352;48.626;9.238;2023-02-10T17:19:14;4.40;95.10
736;DHT22;352;48.626;9.238;2023-02-10T17:21:41;4.40;95.20
736;DHT22;352;48.626;9.238;2023-02-10T17:24:07;4.30;95.30
736;DHT22;352;48.626;9.238;2023-02-10T17:26:34;4.30;95.40
736;DHT22;352;48.626;9.238;2023-02-10T17:29:02;4.20;95.50
736;DHT22;352;48.626;9.238;2023-02-10T17:31:31;4.10;95.50
736;DHT22;352;48.626;9.238;2023-02-10T17:33:58;4.00;95.50
736;DHT22;352;48.626;9.238;2023-02-10T17:36:26;3.90;95.50
736;DHT22;352;48.626;9.238;2023-02-10T17:38:54;3.90;95.70
736;DHT22;352;48.626;9.238;2023-02-10T17:41:27;3.90;95.80
736;DHT22;352;48.626;9.238;2023-02-10T17:43:55;3.80;95.80
736;DHT22;352;48.626;9.238;2023-02-10T17:46:24;3.80;95.90
736;DHT22;352;48.626;9.238;2023-02-10T17:48:51;3.70;96.00
736;DHT22;352;48.626;9.238;2023-02-10T17:51:20;3.70;96.00
736;DHT22;352;48.626;9.238;2023-02-10T17:53:48;3.60;96.00
736;DHT22;352;48.626;9.238;2023-02-10T17:56:15;3.60;96.10
736;DHT22;352;48.626;9.238;2023-02-10T17:58:43;3.50;96.10
736;DHT22;352;48.626;9.238;2023-02-10T18:01:18;3.50;96.30
736;DHT22;352;48.626;9.238;2023-02-10T18:03:46;3.40;96.50
736;DHT22;352;48.626;9.238;2023-02-10T18:06:13;3.40;96.70
736;DHT22;352;48.626;9.238;2023-02-10T18:08:41;3.40;96.90
736;DHT22;352;48.626;9.238;2023-02-10T18:11:08;3.30;97.00
736;DHT22;352;48.626;9.238;2023-02-10T18:13:35;3.30;97.10
736;DHT22;352;48.626;9.238;2023-02-10T18:16:02;3.20;97.10
736;DHT22;352;48.626;9.238;2023-02-10T18:18:29;3.20;97.10
736;DHT22;352;48.626;9.238;2023-02-10T18:20:57;3.20;97.20
736;DHT22;352;48.626;9.238;2023-02-10T18:23:23;3.10;97.20
736;DHT22;352;48.626;9.238;2023-02-10T18:25:51;3.10;97.50
736;DHT22;352;48.626;9.238;2023-02-10T18:28:17;3.10;97.40
736;DHT22;352;48.626;9.238;2023-02-10T18:30:46;3.00;97.40
736;DHT22;352;48.626;9.238;2023-02-10T18:33:14;3.00;97.50
736;DHT22;352;48.626;9.238;2023-02-10T18:35:40;2.90;97.50
736;DHT22;352;48.626;9.238;2023-02-10T18:38:09;2.90;97.60
736;DHT22;352;48.626;9.238;2023-02-10T18:40:39;2.90;97.80
736;DHT22;352;48.626;9.238;2023-02-10T18:43:07;2.90;97.80
736;DHT22;352;48.626;9.238;2023-02-10T18:45:35;2.80;97.90
736;DHT22;352;48.626;9.238;2023-02-10T18:48:02;2.80;98.00
736;DHT22;352;48.626;9.238;2023-02-10T18:50:29;2.70;98.20
736;DHT22;352;48.626;9.238;2023-02-10T18:52:57;2.70;98.30
736;DHT22;352;48.626;9.238;2023-02-10T18:55:25;2.60;98.40
736;DHT22;352;48.626;9.238;2023-02-10T18:57:54;2.60;98.40
736;DHT22;352;48.626;9.238;2023-02-10T19:02:52;2.50;98.50
736;DHT22;352;48.626;9.238;2023-02-10T19:05:19;2.50;98.90
736;DHT22;352;48.626;9.238;2023-02-10T19:07:47;2.40;99.10
736;DHT22;352;48.626;9.238;2023-02-10T19:10:13;2.40;99.20
736;DHT22;352;48.626;9.238;2023-02-10T19:12:41;2.30;99.20
736;DHT22;352;48.626;9.238;2023-02-10T19:15:08;2.30;99.30
736;DHT22;352;48.626;9.238;2023-02-10T19:17:35;2.30;99.40
736;DHT22;352;48.626;9.238;2023-02-10T19:20:02;2.20;99.50
736;DHT22;352;48.626;9.238;2023-02-10T19:22:29;2.20;99.60
736;DHT22;352;48.626;9.238;2023-02-10T19:24:56;2.20;99.70
736;DHT22;352;48.626;9.238;2023-02-10T19:27:23;2.20;99.80
736;DHT22;352;48.626;9.238;2023-02-10T19:29:51;2.20;99.90
736;DHT22;352;48.626;9.238;2023-02-10T19:32:18;2.10;99.90
736;DHT22;352;48.626;9.238;2023-02-10T19:34:44;2.10;99.90
736;DHT22;352;48.626;9.238;2023-02-10T19:37:12;2.00;99.90
736;DHT22;352;48.626;9.238;2023-02-10T19:39:38;2.00;99.90
736;DHT22;352;48.626;9.238;2023-02-10T19:42:05;2.00;99.90
736;DHT22;352;48.626;9.238;2023-02-10T19:44:32;2.00;99.90
736;DHT22;352;48.626;9.238;2023-02-10T19:47:00;2.00;99.90
736;DHT22;352;48.626;9.238;2023-02-10T19:49:27;2.00;99.90
736;DHT22;352;48.626;9.238;2023-02-10T19:51:54;1.90;99.90
736;DHT22;352;48.626;9.238;2023-02-10T19:54:22;1.90;99.90
736;DHT22;352;48.626;9.238;2023-02-10T19:56:48;1.90;99.90
736;DHT22;352;48.626;9.238;2023-02-10T19:59:15;1.90;99.90
736;DHT22;352;48.626;9.238;2023-02-10T20:01:42;1.90;99.90
736;DHT22;352;48.626;9.238;2023-02-10T20:04:10;1.90;99.90
736;DHT22;352;48.626;9.238;2023-02-10T20:06:39;1.80;99.90
736;DHT22;352;48.626;9.238;2023-02-10T20:09:06;1.80;99.90
736;DHT22;352;48.626;9.238;2023-02-10T20:11:33;1.80;99.90
736;DHT22;352;48.626;9.238;2023-02-10T20:14:01;1.80;99.90
736;DHT22;352;48.626;9.238;2023-02-10T20:16:28;1.80;99.90
736;DHT22;352;48.626;9.238;2023-02-10T20:18:55;1.70;99.90
736;DHT22;352;48.626;9.238;2023-02-10T20:21:23;1.70;99.90
736;DHT22;352;48.626;9.238;2023-02-10T20:23:50;1.70;99.90
736;DHT22;352;48.626;9.238;2023-02-10T20:26:17;1.70;99.90
736;DHT22;352;48.626;9.238;2023-02-10T20:28:43;1.60;99.90
736;DHT22;352;48.626;9.238;2023-02-10T20:31:10;1.60;99.90
736;DHT22;352;48.626;9.238;2023-02-10T20:33:38;1.60;99.90
736;DHT22;352;48.626;9.238;2023-02-10T20:36:06;1.60;99.90